sensor_id;sensor_type;location;lat;lon;timestamp;P1;durP1;ratioP1;P2;durP2;ratioP2
24159;SDS011;62385;41.594;23.808;2023-12-20T00:01:20;2.80;;;2.40;;
24159;SDS011;62385;41.594;23.808;2023-12-20T00:03:47;3.13;;;1.53;;
24159;SDS011;62385;41.594;23.808;2023-12-20T00:06:12;2.30;;;2.07;;
24159;SDS011;62385;41.594;23.808;2023-12-20T00:08:38;3.67;;;1.90;;
24159;SDS011;62385;41.594;23.808;2023-12-20T00:11:03;3.00;;;1.77;;
24159;SDS011;62385;41.594;23.808;2023-12-20T00:13:29;2.00;;;1.80;;
24159;SDS011;62385;41.594;23.808;2023-12-20T00:15:54;5.03;;;3.60;;
24159;SDS011;62385;41.594;23.808;2023-12-20T00:18:20;12.97;;;5.67;;
24159;SDS011;62385;41.594;23.808;2023-12-20T00:20:45;10.73;;;8.00;;
24159;SDS011;62385;41.594;23.808;2023-12-20T00:23:11;11.27;;;8.23;;
24159;SDS011;62385;41.594;23.808;2023-12-20T00:25:37;16.00;;;6.17;;
24159;SDS011;62385;41.594;23.808;2023-12-20T00:28:02;4.40;;;3.90;;
24159;SDS011;62385;41.594;23.808;2023-12-20T00:30:28;6.57;;;4.90;;
24159;SDS011;62385;41.594;23.808;2023-12-20T00:32:53;4.90;;;3.20;;
24159;SDS011;62385;41.594;23.808;2023-12-20T00:35:20;6.47;;;4.07;;
24159;SDS011;62385;41.594;23.808;2023-12-20T00:37:45;7.73;;;2.23;;
24159;SDS011;62385;41.594;23.808;2023-12-20T00:40:11;6.67;;;3.43;;
24159;SDS011;62385;41.594;23.808;2023-12-20T00:42:36;8.37;;;3.70;;
24159;SDS011;62385;41.594;23.808;2023-12-20T00:45:02;4.20;;;2.47;;
24159;SDS011;62385;41.594;23.808;2023-12-20T00:47:30;2.07;;;1.87;;
24159;SDS011;62385;41.594;23.808;2023-12-20T00:49:58;4.30;;;1.77;;
24159;SDS011;62385;41.594;23.808;2023-12-20T00:52:23;3.37;;;2.13;;
24159;SDS011;62385;41.594;23.808;2023-12-20T00:54:50;3.87;;;2.07;;
24159;SDS011;62385;41.594;23.808;2023-12-20T00:57:16;1.87;;;1.60;;
24159;SDS011;62385;41.594;23.808;2023-12-20T00:59:41;3.40;;;2.67;;
24159;SDS011;62385;41.594;23.808;2023-12-20T01:02:07;6.23;;;3.17;;
24159;SDS011;62385;41.594;23.808;2023-12-20T01:04:33;3.77;;;2.17;;
24159;SDS011;62385;41.594;23.808;2023-12-20T01:06:58;2.63;;;1.57;;
24159;SDS011;62385;41.594;23.808;2023-12-20T01:09:24;3.33;;;2.00;;
24159;SDS011;62385;41.594;23.808;2023-12-20T01:11:51;0.80;;;0.80;;
24159;SDS011;62385;41.594;23.808;2023-12-20T01:14:18;1.63;;;1.40;;
24159;SDS011;62385;41.594;23.808;2023-12-20T01:16:44;3.80;;;1.40;;
24159;SDS011;62385;41.594;23.808;2023-12-20T01:19:09;2.57;;;2.20;;
24159;SDS011;62385;41.594;23.808;2023-12-20T01:21:35;2.33;;;1.40;;
24159;SDS011;62385;41.594;23.808;2023-12-20T01:24:01;1.27;;;1.10;;
24159;SDS011;62385;41.594;23.808;2023-12-20T01:26:26;1.73;;;1.63;;
24159;SDS011;62385;41.594;23.808;2023-12-20T01:28:52;8.27;;;2.23;;
24159;SDS011;62385;41.594;23.808;2023-12-20T01:31:18;2.63;;;1.87;;
24159;SDS011;62385;41.594;23.808;2023-12-20T01:33:44;1.00;;;0.97;;
24159;SDS011;62385;41.594;23.808;2023-12-20T01:36:09;2.63;;;0.97;;
24159;SDS011;62385;41.594;23.808;2023-12-20T01:38:36;3.40;;;1.93;;
24159;SDS011;62385;41.594;23.808;2023-12-20T01:41:02;2.27;;;2.07;;
24159;SDS011;62385;41.594;23.808;2023-12-20T01:43:28;3.77;;;2.43;;
24159;SDS011;62385;41.594;23.808;2023-12-20T01:45:54;4.73;;;3.60;;
24159;SDS011;62385;41.594;23.808;2023-12-20T01:48:22;8.70;;;4.78;;
24159;SDS011;62385;41.594;23.808;2023-12-20T01:50:49;5.80;;;3.90;;
24159;SDS011;62385;41.594;23.808;2023-12-20T01:53:14;3.40;;;1.33;;
24159;SDS011;62385;41.594;23.808;2023-12-20T01:55:41;4.00;;;3.53;;
24159;SDS011;62385;41.594;23.808;2023-12-20T01:58:08;9.73;;;3.63;;
24159;SDS011;62385;41.594;23.808;2023-12-20T02:00:35;6.33;;;3.67;;
24159;SDS011;62385;41.594;23.808;2023-12-20T02:03:02;6.67;;;4.90;;
24159;SDS011;62385;41.594;23.808;2023-12-20T02:05:31;3.87;;;3.40;;
24159;SDS011;62385;41.594;23.808;2023-12-20T02:07:59;12.30;;;3.37;;
24159;SDS011;62385;41.594;23.808;2023-12-20T02:10:24;3.53;;;2.47;;
24159;SDS011;62385;41.594;23.808;2023-12-20T02:12:50;5.30;;;1.90;;
24159;SDS011;62385;41.594;23.808;2023-12-20T02:15:16;1.50;;;1.40;;
24159;SDS011;62385;41.594;23.808;2023-12-20T02:17:42;1.53;;;1.00;;
24159;SDS011;62385;41.594;23.808;2023-12-20T02:20:08;1.17;;;1.00;;
24159;SDS011;62385;41.594;23.808;2023-12-20T02:22:34;6.17;;;2.30;;
24159;SDS011;62385;41.594;23.808;2023-12-20T02:24:59;5.43;;;2.90;;
24159;SDS011;62385;41.594;23.808;2023-12-20T02:27:25;2.40;;;2.13;;
24159;SDS011;62385;41.594;23.808;2023-12-20T02:29:50;3.60;;;2.07;;
24159;SDS011;62385;41.594;23.808;2023-12-20T02:32:17;4.27;;;3.87;;
24159;SDS011;62385;41.594;23.808;2023-12-20T02:34:42;11.37;;;5.93;;
24159;SDS011;62385;41.594;23.808;2023-12-20T02:37:08;3.13;;;2.53;;
24159;SDS011;62385;41.594;23.808;2023-12-20T02:39:33;2.43;;;2.07;;
24159;SDS011;62385;41.594;23.808;2023-12-20T02:41:59;3.30;;;2.17;;
24159;SDS011;62385;41.594;23.808;2023-12-20T02:44:25;10.60;;;4.10;;
24159;SDS011;62385;41.594;23.808;2023-12-20T02:46:50;4.70;;;2.77;;
24159;SDS011;62385;41.594;23.808;2023-12-20T02:49:16;2.23;;;2.03;;
24159;SDS011;62385;41.594;23.808;2023-12-20T02:51:41;5.30;;;2.93;;
24159;SDS011;62385;41.594;23.808;2023-12-20T02:54:07;2.30;;;1.00;;
24159;SDS011;62385;41.594;23.808;2023-12-20T02:56:33;3.17;;;1.80;;
24159;SDS011;62385;41.594;23.808;2023-12-20T02:58:58;5.07;;;3.83;;
24159;SDS011;62385;41.594;23.808;2023-12-20T03:01:24;11.17;;;4.60;;
24159;SDS011;62385;41.594;23.808;2023-12-20T03:03:50;5.87;;;5.10;;
24159;SDS011;62385;41.594;23.808;2023-12-20T03:06:17;7.63;;;4.20;;
24159;SDS011;62385;41.594;23.808;2023-12-20T03:08:43;9.50;;;6.03;;
24159;SDS011;62385;41.594;23.808;2023-12-20T03:11:09;11.77;;;3.83;;
24159;SDS011;62385;41.594;23.808;2023-12-20T03:13:35;5.00;;;3.53;;
24159;SDS011;62385;41.594;23.808;2023-12-20T03:16:00;2.43;;;2.17;;
24159;SDS011;62385;41.594;23.808;2023-12-20T03:18:26;10.27;;;5.33;;
24159;SDS011;62385;41.594;23.808;2023-12-20T03:20:53;9.90;;;4.30;;
24159;SDS011;62385;41.594;23.808;2023-12-20T03:23:19;12.93;;;5.60;;
24159;SDS011;62385;41.594;23.808;2023-12-20T03:25:44;4.07;;;2.83;;
24159;SDS011;62385;41.594;23.808;2023-12-20T03:28:10;3.70;;;3.30;;
24159;SDS011;62385;41.594;23.808;2023-12-20T03:30:35;5.80;;;3.40;;
24159;SDS011;62385;41.594;23.808;2023-12-20T03:33:01;4.37;;;3.83;;
24159;SDS011;62385;41.594;23.808;2023-12-20T03:35:26;5.10;;;4.13;;
24159;SDS011;62385;41.594;23.808;2023-12-20T03:37:52;3.67;;;3.27;;
24159;SDS011;62385;41.594;23.808;2023-12-20T03:40:17;3.00;;;2.43;;
24159;SDS011;62385;41.594;23.808;2023-12-20T03:42:43;8.90;;;4.17;;
24159;SDS011;62385;41.594;23.808;2023-12-20T03:45:09;8.57;;;4.70;;
24159;SDS011;62385;41.594;23.808;2023-12-20T03:47:34;6.03;;;3.07;;
24159;SDS011;62385;41.594;23.808;2023-12-20T03:50:00;4.63;;;3.13;;
24159;SDS011;62385;41.594;23.808;2023-12-20T03:52:25;3.77;;;3.27;;
24159;SDS011;62385;41.594;23.808;2023-12-20T03:54:51;4.80;;;3.30;;
24159;SDS011;62385;41.594;23.808;2023-12-20T03:57:16;5.83;;;3.43;;
24159;SDS011;62385;41.594;23.808;2023-12-20T03:59:42;2.33;;;1.97;;
24159;SDS011;62385;41.594;23.808;2023-12-20T04:02:07;3.83;;;2.47;;
24159;SDS011;62385;41.594;23.808;2023-12-20T04:04:33;3.57;;;3.23;;
24159;SDS011;62385;41.594;23.808;2023-12-20T04:06:58;5.33;;;2.83;;
24159;SDS011;62385;41.594;23.808;2023-12-20T04:09:24;3.43;;;2.17;;
24159;SDS011;62385;41.594;23.808;2023-12-20T04:11:49;12.87;;;4.07;;
24159;SDS011;62385;41.594;23.808;2023-12-20T04:14:15;15.63;;;2.07;;
24159;SDS011;62385;41.594;23.808;2023-12-20T04:16:40;3.03;;;2.43;;
24159;SDS011;62385;41.594;23.808;2023-12-20T04:19:06;45.10;;;21.50;;
24159;SDS011;62385;41.594;23.808;2023-12-20T04:21:31;17.67;;;6.53;;
24159;SDS011;62385;41.594;23.808;2023-12-20T04:23:57;4.60;;;3.43;;
24159;SDS011;62385;41.594;23.808;2023-12-20T04:26:22;4.90;;;3.53;;
24159;SDS011;62385;41.594;23.808;2023-12-20T04:28:48;4.00;;;3.47;;
24159;SDS011;62385;41.594;23.808;2023-12-20T04:31:13;9.60;;;5.83;;
24159;SDS011;62385;41.594;23.808;2023-12-20T04:33:39;8.67;;;3.30;;
24159;SDS011;62385;41.594;23.808;2023-12-20T04:36:04;4.87;;;3.73;;
24159;SDS011;62385;41.594;23.808;2023-12-20T04:38:30;7.97;;;5.83;;
24159;SDS011;62385;41.594;23.808;2023-12-20T04:40:56;4.73;;;4.30;;
24159;SDS011;62385;41.594;23.808;2023-12-20T04:43:21;9.57;;;4.87;;
24159;SDS011;62385;41.594;23.808;2023-12-20T04:45:47;9.37;;;5.83;;
24159;SDS011;62385;41.594;23.808;2023-12-20T04:48:12;5.03;;;4.50;;
24159;SDS011;62385;41.594;23.808;2023-12-20T04:50:38;16.30;;;8.00;;
24159;SDS011;62385;41.594;23.808;2023-12-20T04:53:03;13.80;;;3.37;;
24159;SDS011;62385;41.594;23.808;2023-12-20T04:55:29;10.27;;;4.37;;
24159;SDS011;62385;41.594;23.808;2023-12-20T04:57:55;8.60;;;3.63;;
24159;SDS011;62385;41.594;23.808;2023-12-20T05:00:21;5.13;;;3.23;;
24159;SDS011;62385;41.594;23.808;2023-12-20T05:02:47;8.53;;;4.70;;
24159;SDS011;62385;41.594;23.808;2023-12-20T05:05:12;9.30;;;5.70;;
24159;SDS011;62385;41.594;23.808;2023-12-20T05:07:40;12.90;;;5.20;;
24159;SDS011;62385;41.594;23.808;2023-12-20T05:10:06;4.00;;;2.90;;
24159;SDS011;62385;41.594;23.808;2023-12-20T05:12:33;6.63;;;4.37;;
24159;SDS011;62385;41.594;23.808;2023-12-20T05:14:59;3.20;;;2.60;;
24159;SDS011;62385;41.594;23.808;2023-12-20T05:17:25;6.23;;;3.47;;
24159;SDS011;62385;41.594;23.808;2023-12-20T05:19:51;7.57;;;4.43;;
24159;SDS011;62385;41.594;23.808;2023-12-20T05:22:16;9.97;;;4.30;;
24159;SDS011;62385;41.594;23.808;2023-12-20T05:24:42;6.30;;;4.20;;
24159;SDS011;62385;41.594;23.808;2023-12-20T05:27:08;5.93;;;3.60;;
24159;SDS011;62385;41.594;23.808;2023-12-20T05:29:33;6.30;;;3.37;;
24159;SDS011;62385;41.594;23.808;2023-12-20T05:31:59;10.13;;;4.33;;
24159;SDS011;62385;41.594;23.808;2023-12-20T05:34:24;3.97;;;3.13;;
24159;SDS011;62385;41.594;23.808;2023-12-20T05:36:50;4.87;;;3.33;;
24159;SDS011;62385;41.594;23.808;2023-12-20T05:39:15;7.83;;;4.77;;
24159;SDS011;62385;41.594;23.808;2023-12-20T05:41:41;3.83;;;3.40;;
24159;SDS011;62385;41.594;23.808;2023-12-20T05:44:06;6.43;;;4.27;;
24159;SDS011;62385;41.594;23.808;2023-12-20T05:46:32;13.67;;;4.90;;
24159;SDS011;62385;41.594;23.808;2023-12-20T05:48:58;15.73;;;8.97;;
24159;SDS011;62385;41.594;23.808;2023-12-20T05:51:23;15.07;;;5.83;;
24159;SDS011;62385;41.594;23.808;2023-12-20T05:53:49;9.70;;;5.07;;
24159;SDS011;62385;41.594;23.808;2023-12-20T05:56:15;8.50;;;4.70;;
24159;SDS011;62385;41.594;23.808;2023-12-20T05:58:40;6.97;;;3.90;;
24159;SDS011;62385;41.594;23.808;2023-12-20T06:01:06;23.90;;;11.43;;
24159;SDS011;62385;41.594;23.808;2023-12-20T06:03:33;10.67;;;4.63;;
24159;SDS011;62385;41.594;23.808;2023-12-20T06:05:59;13.90;;;6.50;;
24159;SDS011;62385;41.594;23.808;2023-12-20T06:08:31;20.60;;;10.23;;
24159;SDS011;62385;41.594;23.808;2023-12-20T06:10:56;12.30;;;6.07;;
24159;SDS011;62385;41.594;23.808;2023-12-20T06:13:22;10.90;;;5.23;;
24159;SDS011;62385;41.594;23.808;2023-12-20T06:15:47;5.00;;;3.50;;
24159;SDS011;62385;41.594;23.808;2023-12-20T06:18:13;28.80;;;11.70;;
24159;SDS011;62385;41.594;23.808;2023-12-20T06:20:38;11.33;;;7.80;;
24159;SDS011;62385;41.594;23.808;2023-12-20T06:23:04;11.97;;;7.70;;
24159;SDS011;62385;41.594;23.808;2023-12-20T06:25:29;7.90;;;7.13;;
24159;SDS011;62385;41.594;23.808;2023-12-20T06:27:55;3.93;;;2.50;;
24159;SDS011;62385;41.594;23.808;2023-12-20T06:30:20;4.07;;;2.90;;
24159;SDS011;62385;41.594;23.808;2023-12-20T06:32:46;2.87;;;2.37;;
24159;SDS011;62385;41.594;23.808;2023-12-20T06:35:12;3.77;;;3.00;;
24159;SDS011;62385;41.594;23.808;2023-12-20T06:37:38;2.33;;;2.13;;
24159;SDS011;62385;41.594;23.808;2023-12-20T06:40:07;8.27;;;4.97;;
24159;SDS011;62385;41.594;23.808;2023-12-20T06:42:35;3.03;;;2.60;;
24159;SDS011;62385;41.594;23.808;2023-12-20T06:45:01;5.17;;;3.83;;
24159;SDS011;62385;41.594;23.808;2023-12-20T06:47:26;6.53;;;5.60;;
24159;SDS011;62385;41.594;23.808;2023-12-20T06:49:52;5.77;;;3.53;;
24159;SDS011;62385;41.594;23.808;2023-12-20T06:52:17;5.13;;;3.80;;
24159;SDS011;62385;41.594;23.808;2023-12-20T06:54:43;5.07;;;4.00;;
24159;SDS011;62385;41.594;23.808;2023-12-20T06:57:09;4.07;;;3.43;;
24159;SDS011;62385;41.594;23.808;2023-12-20T06:59:38;3.73;;;2.83;;
24159;SDS011;62385;41.594;23.808;2023-12-20T07:02:05;6.00;;;2.80;;
24159;SDS011;62385;41.594;23.808;2023-12-20T07:04:31;4.43;;;3.40;;
24159;SDS011;62385;41.594;23.808;2023-12-20T07:06:56;4.40;;;3.53;;
24159;SDS011;62385;41.594;23.808;2023-12-20T07:09:25;4.27;;;3.33;;
24159;SDS011;62385;41.594;23.808;2023-12-20T07:11:51;2.37;;;2.17;;
24159;SDS011;62385;41.594;23.808;2023-12-20T07:14:17;4.30;;;3.90;;
24159;SDS011;62385;41.594;23.808;2023-12-20T07:16:42;4.90;;;3.77;;
24159;SDS011;62385;41.594;23.808;2023-12-20T07:19:08;2.60;;;1.73;;
24159;SDS011;62385;41.594;23.808;2023-12-20T07:21:34;6.30;;;4.10;;
24159;SDS011;62385;41.594;23.808;2023-12-20T07:23:59;8.90;;;3.33;;
24159;SDS011;62385;41.594;23.808;2023-12-20T07:26:25;4.13;;;3.37;;
24159;SDS011;62385;41.594;23.808;2023-12-20T07:28:50;6.43;;;4.50;;
24159;SDS011;62385;41.594;23.808;2023-12-20T07:31:16;4.90;;;3.60;;
24159;SDS011;62385;41.594;23.808;2023-12-20T07:33:41;10.40;;;4.53;;
24159;SDS011;62385;41.594;23.808;2023-12-20T07:36:07;5.30;;;3.80;;
24159;SDS011;62385;41.594;23.808;2023-12-20T07:38:33;3.93;;;3.33;;
24159;SDS011;62385;41.594;23.808;2023-12-20T07:40:59;4.63;;;4.10;;
24159;SDS011;62385;41.594;23.808;2023-12-20T07:43:24;8.27;;;3.93;;
24159;SDS011;62385;41.594;23.808;2023-12-20T07:45:50;4.03;;;2.60;;
24159;SDS011;62385;41.594;23.808;2023-12-20T07:48:15;6.50;;;3.23;;
24159;SDS011;62385;41.594;23.808;2023-12-20T07:50:41;4.57;;;2.83;;
24159;SDS011;62385;41.594;23.808;2023-12-20T07:53:07;4.80;;;3.90;;
24159;SDS011;62385;41.594;23.808;2023-12-20T07:55:33;8.43;;;6.50;;
24159;SDS011;62385;41.594;23.808;2023-12-20T07:57:59;7.30;;;3.60;;
24159;SDS011;62385;41.594;23.808;2023-12-20T08:00:25;7.20;;;4.37;;
24159;SDS011;62385;41.594;23.808;2023-12-20T08:02:51;10.50;;;4.97;;
24159;SDS011;62385;41.594;23.808;2023-12-20T08:05:17;4.53;;;2.73;;
24159;SDS011;62385;41.594;23.808;2023-12-20T08:07:42;14.53;;;4.63;;
24159;SDS011;62385;41.594;23.808;2023-12-20T08:10:08;3.33;;;1.77;;
24159;SDS011;62385;41.594;23.808;2023-12-20T08:12:33;6.90;;;4.33;;
24159;SDS011;62385;41.594;23.808;2023-12-20T08:14:59;13.07;;;2.97;;
24159;SDS011;62385;41.594;23.808;2023-12-20T08:17:25;4.63;;;4.00;;
24159;SDS011;62385;41.594;23.808;2023-12-20T08:19:51;11.33;;;5.00;;
24159;SDS011;62385;41.594;23.808;2023-12-20T08:22:16;3.43;;;3.10;;
24159;SDS011;62385;41.594;23.808;2023-12-20T08:24:42;8.93;;;6.40;;
24159;SDS011;62385;41.594;23.808;2023-12-20T08:27:08;8.80;;;7.03;;
24159;SDS011;62385;41.594;23.808;2023-12-20T08:29:34;22.70;;;9.90;;
24159;SDS011;62385;41.594;23.808;2023-12-20T08:32:00;25.30;;;11.93;;
24159;SDS011;62385;41.594;23.808;2023-12-20T08:34:26;21.70;;;12.10;;
24159;SDS011;62385;41.594;23.808;2023-12-20T08:36:52;14.23;;;10.07;;
24159;SDS011;62385;41.594;23.808;2023-12-20T08:39:17;35.13;;;12.70;;
24159;SDS011;62385;41.594;23.808;2023-12-20T08:41:43;25.27;;;11.13;;
24159;SDS011;62385;41.594;23.808;2023-12-20T08:44:08;15.27;;;9.10;;
24159;SDS011;62385;41.594;23.808;2023-12-20T08:46:34;13.20;;;11.23;;
24159;SDS011;62385;41.594;23.808;2023-12-20T08:49:00;24.17;;;9.83;;
24159;SDS011;62385;41.594;23.808;2023-12-20T08:51:26;12.00;;;7.60;;
24159;SDS011;62385;41.594;23.808;2023-12-20T08:53:52;19.63;;;7.90;;
24159;SDS011;62385;41.594;23.808;2023-12-20T08:56:18;14.90;;;10.57;;
24159;SDS011;62385;41.594;23.808;2023-12-20T08:58:45;15.67;;;9.87;;
24159;SDS011;62385;41.594;23.808;2023-12-20T09:01:12;12.77;;;9.03;;
24159;SDS011;62385;41.594;23.808;2023-12-20T09:03:38;16.73;;;6.23;;
24159;SDS011;62385;41.594;23.808;2023-12-20T09:06:04;5.17;;;4.67;;
24159;SDS011;62385;41.594;23.808;2023-12-20T09:08:30;19.90;;;8.67;;
24159;SDS011;62385;41.594;23.808;2023-12-20T09:10:56;9.50;;;6.13;;
24159;SDS011;62385;41.594;23.808;2023-12-20T09:13:22;7.60;;;5.20;;
24159;SDS011;62385;41.594;23.808;2023-12-20T09:15:56;15.73;;;5.00;;
24159;SDS011;62385;41.594;23.808;2023-12-20T09:18:22;10.63;;;5.80;;
24159;SDS011;62385;41.594;23.808;2023-12-20T09:20:47;12.80;;;8.17;;
24159;SDS011;62385;41.594;23.808;2023-12-20T09:23:13;15.97;;;6.00;;
24159;SDS011;62385;41.594;23.808;2023-12-20T09:25:39;10.00;;;5.10;;
24159;SDS011;62385;41.594;23.808;2023-12-20T09:28:04;9.03;;;6.93;;
24159;SDS011;62385;41.594;23.808;2023-12-20T09:30:30;17.73;;;6.87;;
24159;SDS011;62385;41.594;23.808;2023-12-20T09:32:56;14.13;;;10.60;;
24159;SDS011;62385;41.594;23.808;2023-12-20T09:35:23;7.70;;;6.13;;
24159;SDS011;62385;41.594;23.808;2023-12-20T09:37:49;5.37;;;4.20;;
24159;SDS011;62385;41.594;23.808;2023-12-20T09:40:15;5.90;;;5.23;;
24159;SDS011;62385;41.594;23.808;2023-12-20T09:42:51;9.23;;;4.97;;
24159;SDS011;62385;41.594;23.808;2023-12-20T09:45:19;8.50;;;5.73;;
24159;SDS011;62385;41.594;23.808;2023-12-20T09:47:47;13.90;;;5.63;;
24159;SDS011;62385;41.594;23.808;2023-12-20T09:50:15;16.33;;;7.40;;
24159;SDS011;62385;41.594;23.808;2023-12-20T09:52:44;10.13;;;6.83;;
24159;SDS011;62385;41.594;23.808;2023-12-20T09:55:14;7.73;;;5.80;;
24159;SDS011;62385;41.594;23.808;2023-12-20T09:57:42;11.53;;;7.37;;
24159;SDS011;62385;41.594;23.808;2023-12-20T10:00:07;7.90;;;5.93;;
24159;SDS011;62385;41.594;23.808;2023-12-20T10:02:38;6.63;;;4.33;;
24159;SDS011;62385;41.594;23.808;2023-12-20T10:05:11;8.00;;;4.80;;
24159;SDS011;62385;41.594;23.808;2023-12-20T10:07:41;5.57;;;4.63;;
24159;SDS011;62385;41.594;23.808;2023-12-20T10:10:07;6.73;;;5.03;;
24159;SDS011;62385;41.594;23.808;2023-12-20T10:12:34;7.27;;;3.77;;
24159;SDS011;62385;41.594;23.808;2023-12-20T10:14:59;10.20;;;6.13;;
24159;SDS011;62385;41.594;23.808;2023-12-20T10:17:25;7.53;;;4.37;;
24159;SDS011;62385;41.594;23.808;2023-12-20T10:19:54;11.80;;;6.10;;
24159;SDS011;62385;41.594;23.808;2023-12-20T10:22:19;5.70;;;4.47;;
24159;SDS011;62385;41.594;23.808;2023-12-20T10:24:46;5.50;;;4.17;;
24159;SDS011;62385;41.594;23.808;2023-12-20T10:27:12;6.50;;;3.33;;
24159;SDS011;62385;41.594;23.808;2023-12-20T10:29:37;6.67;;;5.43;;
24159;SDS011;62385;41.594;23.808;2023-12-20T10:34:49;5.67;;;2.83;;
24159;SDS011;62385;41.594;23.808;2023-12-20T10:37:16;6.40;;;2.37;;
24159;SDS011;62385;41.594;23.808;2023-12-20T10:39:42;2.67;;;2.47;;
24159;SDS011;62385;41.594;23.808;2023-12-20T10:42:12;3.60;;;3.00;;
24159;SDS011;62385;41.594;23.808;2023-12-20T10:44:39;2.23;;;2.03;;
24159;SDS011;62385;41.594;23.808;2023-12-20T10:47:05;3.37;;;2.03;;
24159;SDS011;62385;41.594;23.808;2023-12-20T10:49:31;4.73;;;2.33;;
24159;SDS011;62385;41.594;23.808;2023-12-20T10:52:01;7.63;;;4.80;;
24159;SDS011;62385;41.594;23.808;2023-12-20T10:54:29;5.50;;;3.53;;
24159;SDS011;62385;41.594;23.808;2023-12-20T10:56:54;4.10;;;2.17;;
24159;SDS011;62385;41.594;23.808;2023-12-20T10:59:23;1.07;;;1.07;;
24159;SDS011;62385;41.594;23.808;2023-12-20T11:01:50;3.30;;;2.17;;
24159;SDS011;62385;41.594;23.808;2023-12-20T11:04:20;1.97;;;1.77;;
24159;SDS011;62385;41.594;23.808;2023-12-20T11:06:54;4.20;;;2.23;;
24159;SDS011;62385;41.594;23.808;2023-12-20T11:09:26;8.27;;;4.70;;
24159;SDS011;62385;41.594;23.808;2023-12-20T11:12:10;9.50;;;4.40;;
24159;SDS011;62385;41.594;23.808;2023-12-20T11:14:47;6.60;;;3.60;;
24159;SDS011;62385;41.594;23.808;2023-12-20T11:17:16;4.47;;;2.03;;
24159;SDS011;62385;41.594;23.808;2023-12-20T11:22:20;5.07;;;3.37;;
24159;SDS011;62385;41.594;23.808;2023-12-20T11:24:47;3.33;;;2.17;;
24159;SDS011;62385;41.594;23.808;2023-12-20T11:27:13;2.93;;;2.57;;
24159;SDS011;62385;41.594;23.808;2023-12-20T11:29:39;11.67;;;5.47;;
24159;SDS011;62385;41.594;23.808;2023-12-20T11:35:00;5.43;;;3.43;;
24159;SDS011;62385;41.594;23.808;2023-12-20T11:37:43;4.87;;;3.10;;
24159;SDS011;62385;41.594;23.808;2023-12-20T11:40:13;10.00;;;2.47;;
24159;SDS011;62385;41.594;23.808;2023-12-20T11:42:40;3.83;;;3.10;;
24159;SDS011;62385;41.594;23.808;2023-12-20T11:45:10;6.90;;;2.37;;
24159;SDS011;62385;41.594;23.808;2023-12-20T11:47:40;3.50;;;1.80;;
24159;SDS011;62385;41.594;23.808;2023-12-20T11:50:07;3.97;;;1.63;;
24159;SDS011;62385;41.594;23.808;2023-12-20T11:52:33;6.27;;;4.37;;
24159;SDS011;62385;41.594;23.808;2023-12-20T11:54:58;3.13;;;2.37;;
24159;SDS011;62385;41.594;23.808;2023-12-20T11:57:24;3.03;;;2.73;;
24159;SDS011;62385;41.594;23.808;2023-12-20T11:59:50;2.97;;;2.17;;
24159;SDS011;62385;41.594;23.808;2023-12-20T12:02:15;3.33;;;1.10;;
24159;SDS011;62385;41.594;23.808;2023-12-20T12:04:41;2.70;;;1.47;;
24159;SDS011;62385;41.594;23.808;2023-12-20T12:07:07;2.17;;;1.37;;
24159;SDS011;62385;41.594;23.808;2023-12-20T12:09:32;3.30;;;1.63;;
24159;SDS011;62385;41.594;23.808;2023-12-20T12:11:58;7.63;;;1.67;;
24159;SDS011;62385;41.594;23.808;2023-12-20T12:14:24;4.00;;;2.20;;
24159;SDS011;62385;41.594;23.808;2023-12-20T12:16:50;1.60;;;1.33;;
24159;SDS011;62385;41.594;23.808;2023-12-20T12:19:22;2.93;;;2.07;;
24159;SDS011;62385;41.594;23.808;2023-12-20T12:22:03;1.60;;;1.23;;
24159;SDS011;62385;41.594;23.808;2023-12-20T12:24:35;5.30;;;2.07;;
24159;SDS011;62385;41.594;23.808;2023-12-20T12:27:01;4.33;;;1.27;;
24159;SDS011;62385;41.594;23.808;2023-12-20T12:29:27;1.43;;;1.33;;
24159;SDS011;62385;41.594;23.808;2023-12-20T12:31:53;2.07;;;1.50;;
24159;SDS011;62385;41.594;23.808;2023-12-20T12:34:18;3.63;;;2.13;;
24159;SDS011;62385;41.594;23.808;2023-12-20T12:36:44;3.60;;;1.90;;
24159;SDS011;62385;41.594;23.808;2023-12-20T12:39:17;3.03;;;1.30;;
24159;SDS011;62385;41.594;23.808;2023-12-20T12:41:43;2.43;;;1.20;;
24159;SDS011;62385;41.594;23.808;2023-12-20T12:44:09;3.03;;;1.27;;
24159;SDS011;62385;41.594;23.808;2023-12-20T12:46:34;1.90;;;1.53;;
24159;SDS011;62385;41.594;23.808;2023-12-20T12:49:00;2.43;;;2.13;;
24159;SDS011;62385;41.594;23.808;2023-12-20T12:51:26;5.73;;;1.77;;
24159;SDS011;62385;41.594;23.808;2023-12-20T12:53:51;2.87;;;1.73;;
24159;SDS011;62385;41.594;23.808;2023-12-20T12:56:17;1.33;;;0.90;;
24159;SDS011;62385;41.594;23.808;2023-12-20T12:58:42;1.67;;;1.57;;
24159;SDS011;62385;41.594;23.808;2023-12-20T13:01:08;1.53;;;1.00;;
24159;SDS011;62385;41.594;23.808;2023-12-20T13:03:34;2.23;;;2.03;;
24159;SDS011;62385;41.594;23.808;2023-12-20T13:06:00;2.50;;;1.57;;
24159;SDS011;62385;41.594;23.808;2023-12-20T13:08:26;2.87;;;1.53;;
24159;SDS011;62385;41.594;23.808;2023-12-20T13:10:52;3.10;;;1.87;;
24159;SDS011;62385;41.594;23.808;2023-12-20T13:13:18;5.10;;;1.80;;
24159;SDS011;62385;41.594;23.808;2023-12-20T13:15:43;3.23;;;1.37;;
24159;SDS011;62385;41.594;23.808;2023-12-20T13:18:16;2.33;;;1.13;;
24159;SDS011;62385;41.594;23.808;2023-12-20T13:20:43;3.00;;;1.43;;
24159;SDS011;62385;41.594;23.808;2023-12-20T13:23:09;2.43;;;1.50;;
24159;SDS011;62385;41.594;23.808;2023-12-20T13:25:35;1.83;;;1.30;;
24159;SDS011;62385;41.594;23.808;2023-12-20T13:28:01;4.03;;;2.30;;
24159;SDS011;62385;41.594;23.808;2023-12-20T13:30:28;2.07;;;1.87;;
24159;SDS011;62385;41.594;23.808;2023-12-20T13:32:53;2.03;;;1.53;;
24159;SDS011;62385;41.594;23.808;2023-12-20T13:35:19;2.70;;;1.67;;
24159;SDS011;62385;41.594;23.808;2023-12-20T13:37:45;1.63;;;1.00;;
24159;SDS011;62385;41.594;23.808;2023-12-20T13:40:11;3.70;;;2.10;;
24159;SDS011;62385;41.594;23.808;2023-12-20T13:42:38;5.80;;;3.43;;
24159;SDS011;62385;41.594;23.808;2023-12-20T13:45:04;13.13;;;3.83;;
24159;SDS011;62385;41.594;23.808;2023-12-20T13:47:31;2.27;;;1.97;;
24159;SDS011;62385;41.594;23.808;2023-12-20T13:49:56;3.97;;;2.13;;
24159;SDS011;62385;41.594;23.808;2023-12-20T13:52:22;1.93;;;1.47;;
24159;SDS011;62385;41.594;23.808;2023-12-20T13:54:47;3.47;;;1.97;;
24159;SDS011;62385;41.594;23.808;2023-12-20T13:57:13;7.70;;;2.37;;
24159;SDS011;62385;41.594;23.808;2023-12-20T13:59:39;4.93;;;2.77;;
24159;SDS011;62385;41.594;23.808;2023-12-20T14:02:05;4.83;;;2.77;;
24159;SDS011;62385;41.594;23.808;2023-12-20T14:04:30;12.00;;;3.27;;
24159;SDS011;62385;41.594;23.808;2023-12-20T14:06:56;2.03;;;1.40;;
24159;SDS011;62385;41.594;23.808;2023-12-20T14:09:22;8.27;;;2.77;;
24159;SDS011;62385;41.594;23.808;2023-12-20T14:11:48;11.17;;;3.03;;
24159;SDS011;62385;41.594;23.808;2023-12-20T14:14:13;10.63;;;4.33;;
24159;SDS011;62385;41.594;23.808;2023-12-20T14:16:39;12.60;;;3.13;;
24159;SDS011;62385;41.594;23.808;2023-12-20T14:19:05;4.07;;;2.80;;
24159;SDS011;62385;41.594;23.808;2023-12-20T14:21:33;22.67;;;3.30;;
24159;SDS011;62385;41.594;23.808;2023-12-20T14:23:58;4.30;;;2.67;;
24159;SDS011;62385;41.594;23.808;2023-12-20T14:26:24;3.80;;;2.33;;
24159;SDS011;62385;41.594;23.808;2023-12-20T14:28:49;7.07;;;3.80;;
24159;SDS011;62385;41.594;23.808;2023-12-20T14:31:15;21.67;;;9.87;;
24159;SDS011;62385;41.594;23.808;2023-12-20T14:33:41;18.50;;;9.90;;